sensor_id;sensor_type;location;lat;lon;timestamp;P1;durP1;ratioP1;P2;durP2;ratioP2
63259;SDS011;49390;51.380;0.098;2023-05-07T00:00:31;13.93;;;6.30;;
63259;SDS011;49390;51.380;0.098;2023-05-07T00:03:19;13.38;;;5.35;;
63259;SDS011;49390;51.380;0.098;2023-05-07T00:05:47;10.43;;;5.22;;
63259;SDS011;49390;51.380;0.098;2023-05-07T00:08:15;12.45;;;5.00;;
63259;SDS011;49390;51.380;0.098;2023-05-07T00:10:43;8.80;;;5.20;;
63259;SDS011;49390;51.380;0.098;2023-05-07T00:13:12;8.63;;;4.15;;
63259;SDS011;49390;51.380;0.098;2023-05-07T00:15:40;8.98;;;4.05;;
63259;SDS011;49390;51.380;0.098;2023-05-07T00:18:08;7.90;;;4.30;;
63259;SDS011;49390;51.380;0.098;2023-05-07T00:20:35;11.38;;;4.10;;
63259;SDS011;49390;51.380;0.098;2023-05-07T00:23:04;6.93;;;3.58;;
63259;SDS011;49390;51.380;0.098;2023-05-07T00:27:48;8.45;;;4.07;;
63259;SDS011;49390;51.380;0.098;2023-05-07T00:30:16;7.20;;;3.67;;
63259;SDS011;49390;51.380;0.098;2023-05-07T00:32:44;8.27;;;4.50;;
63259;SDS011;49390;51.380;0.098;2023-05-07T00:35:16;7.60;;;4.78;;
63259;SDS011;49390;51.380;0.098;2023-05-07T00:37:44;8.00;;;4.00;;
63259;SDS011;49390;51.380;0.098;2023-05-07T00:40:12;10.18;;;4.10;;
63259;SDS011;49390;51.380;0.098;2023-05-07T00:42:42;9.27;;;4.00;;
63259;SDS011;49390;51.380;0.098;2023-05-07T00:45:15;8.25;;;4.70;;
63259;SDS011;49390;51.380;0.098;2023-05-07T00:47:43;7.60;;;4.20;;
63259;SDS011;49390;51.380;0.098;2023-05-07T00:50:12;9.43;;;4.22;;
63259;SDS011;49390;51.380;0.098;2023-05-07T00:52:40;8.27;;;5.03;;
63259;SDS011;49390;51.380;0.098;2023-05-07T00:55:09;7.82;;;4.00;;
63259;SDS011;49390;51.380;0.098;2023-05-07T00:57:39;7.70;;;3.90;;
63259;SDS011;49390;51.380;0.098;2023-05-07T01:00:08;9.13;;;3.88;;
63259;SDS011;49390;51.380;0.098;2023-05-07T01:02:37;6.38;;;4.10;;
63259;SDS011;49390;51.380;0.098;2023-05-07T01:05:11;6.20;;;3.40;;
63259;SDS011;49390;51.380;0.098;2023-05-07T01:07:42;7.10;;;3.88;;
63259;SDS011;49390;51.380;0.098;2023-05-07T01:10:11;7.15;;;3.83;;
63259;SDS011;49390;51.380;0.098;2023-05-07T01:12:40;6.97;;;3.97;;
63259;SDS011;49390;51.380;0.098;2023-05-07T01:15:12;7.57;;;3.83;;
63259;SDS011;49390;51.380;0.098;2023-05-07T01:17:41;6.72;;;3.72;;
63259;SDS011;49390;51.380;0.098;2023-05-07T01:20:18;8.45;;;3.95;;
63259;SDS011;49390;51.380;0.098;2023-05-07T01:22:48;7.53;;;4.33;;
63259;SDS011;49390;51.380;0.098;2023-05-07T01:25:17;7.07;;;3.55;;
63259;SDS011;49390;51.380;0.098;2023-05-07T01:27:50;7.30;;;3.95;;
63259;SDS011;49390;51.380;0.098;2023-05-07T01:30:20;7.03;;;3.60;;
63259;SDS011;49390;51.380;0.098;2023-05-07T01:35:33;7.32;;;3.63;;
63259;SDS011;49390;51.380;0.098;2023-05-07T01:38:05;7.47;;;3.70;;
63259;SDS011;49390;51.380;0.098;2023-05-07T01:40:33;5.85;;;3.42;;
63259;SDS011;49390;51.380;0.098;2023-05-07T01:43:02;8.38;;;3.50;;
63259;SDS011;49390;51.380;0.098;2023-05-07T01:45:32;7.00;;;3.50;;
63259;SDS011;49390;51.380;0.098;2023-05-07T01:48:02;7.22;;;3.80;;
63259;SDS011;49390;51.380;0.098;2023-05-07T01:52:46;7.03;;;3.90;;
63259;SDS011;49390;51.380;0.098;2023-05-07T01:55:17;5.57;;;3.43;;
63259;SDS011;49390;51.380;0.098;2023-05-07T01:57:44;10.13;;;4.05;;
63259;SDS011;49390;51.380;0.098;2023-05-07T02:02:44;6.55;;;3.40;;
63259;SDS011;49390;51.380;0.098;2023-05-07T02:05:36;8.48;;;3.97;;
63259;SDS011;49390;51.380;0.098;2023-05-07T02:08:11;7.25;;;4.00;;
63259;SDS011;49390;51.380;0.098;2023-05-07T02:10:39;7.95;;;3.92;;
63259;SDS011;49390;51.380;0.098;2023-05-07T02:13:07;7.40;;;3.72;;
63259;SDS011;49390;51.380;0.098;2023-05-07T02:15:35;8.05;;;4.30;;
63259;SDS011;49390;51.380;0.098;2023-05-07T02:18:05;7.13;;;3.80;;
63259;SDS011;49390;51.380;0.098;2023-05-07T02:23:08;7.10;;;3.70;;
63259;SDS011;49390;51.380;0.098;2023-05-07T02:25:36;7.93;;;4.32;;
63259;SDS011;49390;51.380;0.098;2023-05-07T02:28:04;7.70;;;3.97;;
63259;SDS011;49390;51.380;0.098;2023-05-07T02:30:41;7.07;;;3.85;;
63259;SDS011;49390;51.380;0.098;2023-05-07T02:33:09;8.13;;;4.38;;
63259;SDS011;49390;51.380;0.098;2023-05-07T02:35:40;9.65;;;4.53;;
63259;SDS011;49390;51.380;0.098;2023-05-07T02:38:08;7.20;;;4.30;;
63259;SDS011;49390;51.380;0.098;2023-05-07T02:40:39;9.30;;;4.70;;
63259;SDS011;49390;51.380;0.098;2023-05-07T02:43:08;9.57;;;4.85;;
63259;SDS011;49390;51.380;0.098;2023-05-07T02:45:43;8.32;;;4.43;;
63259;SDS011;49390;51.380;0.098;2023-05-07T02:48:14;8.13;;;4.20;;
63259;SDS011;49390;51.380;0.098;2023-05-07T02:50:42;9.43;;;4.80;;
63259;SDS011;49390;51.380;0.098;2023-05-07T02:53:12;10.52;;;5.07;;
63259;SDS011;49390;51.380;0.098;2023-05-07T02:55:40;9.25;;;4.95;;
63259;SDS011;49390;51.380;0.098;2023-05-07T02:58:08;8.50;;;4.90;;
63259;SDS011;49390;51.380;0.098;2023-05-07T03:00:38;9.80;;;4.88;;
63259;SDS011;49390;51.380;0.098;2023-05-07T03:03:19;9.02;;;5.13;;
63259;SDS011;49390;51.380;0.098;2023-05-07T03:05:47;9.98;;;4.95;;
63259;SDS011;49390;51.380;0.098;2023-05-07T03:08:15;9.27;;;5.30;;
63259;SDS011;49390;51.380;0.098;2023-05-07T03:10:43;10.30;;;5.60;;
63259;SDS011;49390;51.380;0.098;2023-05-07T03:13:14;11.13;;;5.07;;
63259;SDS011;49390;51.380;0.098;2023-05-07T03:15:45;9.68;;;5.57;;
63259;SDS011;49390;51.380;0.098;2023-05-07T03:18:13;10.23;;;5.20;;
63259;SDS011;49390;51.380;0.098;2023-05-07T03:20:41;9.50;;;5.07;;
63259;SDS011;49390;51.380;0.098;2023-05-07T03:23:09;10.18;;;5.22;;
63259;SDS011;49390;51.380;0.098;2023-05-07T03:25:37;9.55;;;5.18;;
63259;SDS011;49390;51.380;0.098;2023-05-07T03:28:05;11.25;;;5.80;;
63259;SDS011;49390;51.380;0.098;2023-05-07T03:30:44;10.35;;;5.80;;
63259;SDS011;49390;51.380;0.098;2023-05-07T03:33:12;13.15;;;6.10;;
63259;SDS011;49390;51.380;0.098;2023-05-07T03:35:41;10.43;;;5.55;;
63259;SDS011;49390;51.380;0.098;2023-05-07T03:38:11;9.63;;;6.03;;
63259;SDS011;49390;51.380;0.098;2023-05-07T03:40:39;11.13;;;5.78;;
63259;SDS011;49390;51.380;0.098;2023-05-07T03:43:07;11.15;;;5.38;;
63259;SDS011;49390;51.380;0.098;2023-05-07T03:45:39;10.43;;;5.93;;
63259;SDS011;49390;51.380;0.098;2023-05-07T03:48:13;9.68;;;5.85;;
63259;SDS011;49390;51.380;0.098;2023-05-07T03:50:41;10.25;;;5.72;;
63259;SDS011;49390;51.380;0.098;2023-05-07T03:53:09;10.55;;;6.18;;
63259;SDS011;49390;51.380;0.098;2023-05-07T03:55:39;9.68;;;5.53;;
63259;SDS011;49390;51.380;0.098;2023-05-07T03:58:07;10.07;;;5.47;;
63259;SDS011;49390;51.380;0.098;2023-05-07T04:00:35;10.05;;;6.00;;
63259;SDS011;49390;51.380;0.098;2023-05-07T04:03:15;12.40;;;6.25;;
63259;SDS011;49390;51.380;0.098;2023-05-07T04:05:45;9.95;;;5.93;;
63259;SDS011;49390;51.380;0.098;2023-05-07T04:08:14;11.15;;;6.20;;
63259;SDS011;49390;51.380;0.098;2023-05-07T04:10:47;11.20;;;6.13;;
63259;SDS011;49390;51.380;0.098;2023-05-07T04:13:15;10.27;;;5.85;;
63259;SDS011;49390;51.380;0.098;2023-05-07T04:15:43;11.25;;;6.28;;
63259;SDS011;49390;51.380;0.098;2023-05-07T04:18:15;11.70;;;6.18;;
63259;SDS011;49390;51.380;0.098;2023-05-07T04:20:45;10.30;;;5.93;;
63259;SDS011;49390;51.380;0.098;2023-05-07T04:23:16;10.73;;;6.20;;
63259;SDS011;49390;51.380;0.098;2023-05-07T04:25:44;12.00;;;5.97;;
63259;SDS011;49390;51.380;0.098;2023-05-07T04:28:31;11.10;;;6.38;;
63259;SDS011;49390;51.380;0.098;2023-05-07T04:30:59;10.68;;;5.90;;
63259;SDS011;49390;51.380;0.098;2023-05-07T04:33:32;12.10;;;5.53;;
63259;SDS011;49390;51.380;0.098;2023-05-07T04:36:03;9.32;;;5.75;;
63259;SDS011;49390;51.380;0.098;2023-05-07T04:38:37;10.38;;;5.35;;
63259;SDS011;49390;51.380;0.098;2023-05-07T04:41:06;10.27;;;5.88;;
63259;SDS011;49390;51.380;0.098;2023-05-07T04:43:39;10.77;;;5.72;;
63259;SDS011;49390;51.380;0.098;2023-05-07T04:46:13;10.48;;;5.53;;
63259;SDS011;49390;51.380;0.098;2023-05-07T04:48:42;11.25;;;6.30;;
63259;SDS011;49390;51.380;0.098;2023-05-07T04:51:11;11.43;;;6.25;;
63259;SDS011;49390;51.380;0.098;2023-05-07T04:53:39;10.00;;;6.35;;
63259;SDS011;49390;51.380;0.098;2023-05-07T04:56:08;10.35;;;5.55;;
63259;SDS011;49390;51.380;0.098;2023-05-07T04:58:42;11.13;;;5.72;;
63259;SDS011;49390;51.380;0.098;2023-05-07T05:01:10;11.40;;;6.10;;
63259;SDS011;49390;51.380;0.098;2023-05-07T05:03:41;11.95;;;6.03;;
63259;SDS011;49390;51.380;0.098;2023-05-07T05:06:10;12.27;;;6.68;;
63259;SDS011;49390;51.380;0.098;2023-05-07T05:08:40;10.55;;;6.68;;
63259;SDS011;49390;51.380;0.098;2023-05-07T05:11:10;11.35;;;6.70;;
63259;SDS011;49390;51.380;0.098;2023-05-07T05:13:38;13.77;;;7.40;;
63259;SDS011;49390;51.380;0.098;2023-05-07T05:16:14;12.82;;;7.15;;
63259;SDS011;49390;51.380;0.098;2023-05-07T05:18:42;14.07;;;7.72;;
63259;SDS011;49390;51.380;0.098;2023-05-07T05:21:13;13.02;;;7.15;;
63259;SDS011;49390;51.380;0.098;2023-05-07T05:23:44;11.55;;;7.03;;
63259;SDS011;49390;51.380;0.098;2023-05-07T05:26:16;13.40;;;7.65;;
63259;SDS011;49390;51.380;0.098;2023-05-07T05:28:44;12.63;;;7.15;;
63259;SDS011;49390;51.380;0.098;2023-05-07T05:31:14;12.82;;;6.95;;
63259;SDS011;49390;51.380;0.098;2023-05-07T05:33:43;12.60;;;7.13;;
63259;SDS011;49390;51.380;0.098;2023-05-07T05:36:12;11.73;;;6.50;;
63259;SDS011;49390;51.380;0.098;2023-05-07T05:38:42;15.82;;;6.80;;
63259;SDS011;49390;51.380;0.098;2023-05-07T05:41:12;12.90;;;7.22;;
63259;SDS011;49390;51.380;0.098;2023-05-07T05:43:39;14.32;;;6.47;;
63259;SDS011;49390;51.380;0.098;2023-05-07T05:46:10;14.57;;;7.07;;
63259;SDS011;49390;51.380;0.098;2023-05-07T05:48:39;14.23;;;6.60;;
63259;SDS011;49390;51.380;0.098;2023-05-07T05:51:08;12.70;;;6.60;;
63259;SDS011;49390;51.380;0.098;2023-05-07T05:53:36;12.52;;;6.47;;
63259;SDS011;49390;51.380;0.098;2023-05-07T05:56:05;11.60;;;5.45;;
63259;SDS011;49390;51.380;0.098;2023-05-07T05:58:34;12.02;;;6.00;;
63259;SDS011;49390;51.380;0.098;2023-05-07T06:01:08;13.20;;;6.63;;
63259;SDS011;49390;51.380;0.098;2023-05-07T06:03:37;13.38;;;6.90;;
63259;SDS011;49390;51.380;0.098;2023-05-07T06:06:12;13.73;;;6.72;;
63259;SDS011;49390;51.380;0.098;2023-05-07T06:08:43;12.60;;;6.32;;
63259;SDS011;49390;51.380;0.098;2023-05-07T06:11:14;12.55;;;6.15;;
63259;SDS011;49390;51.380;0.098;2023-05-07T06:13:45;9.52;;;5.10;;
63259;SDS011;49390;51.380;0.098;2023-05-07T06:16:13;11.52;;;5.50;;
63259;SDS011;49390;51.380;0.098;2023-05-07T06:18:43;12.10;;;5.63;;
63259;SDS011;49390;51.380;0.098;2023-05-07T06:21:14;10.13;;;4.68;;
63259;SDS011;49390;51.380;0.098;2023-05-07T06:23:44;10.77;;;5.17;;
63259;SDS011;49390;51.380;0.098;2023-05-07T06:26:13;9.82;;;5.18;;
63259;SDS011;49390;51.380;0.098;2023-05-07T06:28:45;9.70;;;5.55;;
63259;SDS011;49390;51.380;0.098;2023-05-07T06:31:15;10.52;;;5.28;;
63259;SDS011;49390;51.380;0.098;2023-05-07T06:33:57;10.73;;;5.40;;
63259;SDS011;49390;51.380;0.098;2023-05-07T06:36:31;14.70;;;5.95;;
63259;SDS011;49390;51.380;0.098;2023-05-07T06:39:02;10.65;;;5.25;;
63259;SDS011;49390;51.380;0.098;2023-05-07T06:41:30;9.80;;;4.28;;
63259;SDS011;49390;51.380;0.098;2023-05-07T06:44:05;11.30;;;5.18;;
63259;SDS011;49390;51.380;0.098;2023-05-07T06:46:48;9.45;;;4.90;;
63259;SDS011;49390;51.380;0.098;2023-05-07T06:49:16;11.77;;;5.28;;
63259;SDS011;49390;51.380;0.098;2023-05-07T06:51:45;10.75;;;4.75;;
63259;SDS011;49390;51.380;0.098;2023-05-07T06:54:13;8.93;;;4.38;;
63259;SDS011;49390;51.380;0.098;2023-05-07T06:56:43;8.70;;;4.57;;
63259;SDS011;49390;51.380;0.098;2023-05-07T06:59:11;9.82;;;4.70;;
63259;SDS011;49390;51.380;0.098;2023-05-07T07:01:41;11.02;;;5.32;;
63259;SDS011;49390;51.380;0.098;2023-05-07T07:04:11;9.88;;;4.68;;
63259;SDS011;49390;51.380;0.098;2023-05-07T07:06:41;8.73;;;4.80;;
63259;SDS011;49390;51.380;0.098;2023-05-07T07:09:14;10.65;;;5.30;;
63259;SDS011;49390;51.380;0.098;2023-05-07T07:11:42;11.82;;;5.65;;
63259;SDS011;49390;51.380;0.098;2023-05-07T07:14:10;11.65;;;5.82;;
63259;SDS011;49390;51.380;0.098;2023-05-07T07:16:45;11.65;;;5.43;;
63259;SDS011;49390;51.380;0.098;2023-05-07T07:19:15;11.05;;;5.70;;
63259;SDS011;49390;51.380;0.098;2023-05-07T07:21:44;11.02;;;5.63;;
63259;SDS011;49390;51.380;0.098;2023-05-07T07:24:15;13.30;;;5.85;;
63259;SDS011;49390;51.380;0.098;2023-05-07T07:26:48;11.68;;;5.43;;
63259;SDS011;49390;51.380;0.098;2023-05-07T07:29:17;12.30;;;5.90;;
63259;SDS011;49390;51.380;0.098;2023-05-07T07:31:47;10.65;;;6.00;;
63259;SDS011;49390;51.380;0.098;2023-05-07T07:34:18;11.45;;;6.03;;
63259;SDS011;49390;51.380;0.098;2023-05-07T07:36:47;11.75;;;5.75;;
63259;SDS011;49390;51.380;0.098;2023-05-07T07:39:17;13.75;;;6.45;;
63259;SDS011;49390;51.380;0.098;2023-05-07T07:41:48;12.10;;;6.60;;
63259;SDS011;49390;51.380;0.098;2023-05-07T07:44:17;12.57;;;5.85;;
63259;SDS011;49390;51.380;0.098;2023-05-07T07:46:50;12.50;;;6.35;;
63259;SDS011;49390;51.380;0.098;2023-05-07T07:49:20;11.25;;;6.72;;
63259;SDS011;49390;51.380;0.098;2023-05-07T07:51:48;14.40;;;6.75;;
63259;SDS011;49390;51.380;0.098;2023-05-07T07:54:16;11.77;;;6.43;;
63259;SDS011;49390;51.380;0.098;2023-05-07T07:56:45;11.43;;;6.30;;
63259;SDS011;49390;51.380;0.098;2023-05-07T07:59:13;13.82;;;6.40;;
63259;SDS011;49390;51.380;0.098;2023-05-07T08:01:45;13.43;;;7.07;;
63259;SDS011;49390;51.380;0.098;2023-05-07T08:04:16;13.45;;;6.78;;
63259;SDS011;49390;51.380;0.098;2023-05-07T08:06:45;13.15;;;6.75;;
63259;SDS011;49390;51.380;0.098;2023-05-07T08:09:14;13.73;;;7.30;;
63259;SDS011;49390;51.380;0.098;2023-05-07T08:11:42;12.77;;;7.13;;
63259;SDS011;49390;51.380;0.098;2023-05-07T08:14:10;14.35;;;7.60;;
63259;SDS011;49390;51.380;0.098;2023-05-07T08:16:39;12.20;;;6.93;;
63259;SDS011;49390;51.380;0.098;2023-05-07T08:19:07;12.85;;;7.20;;
63259;SDS011;49390;51.380;0.098;2023-05-07T08:21:38;15.02;;;7.32;;
63259;SDS011;49390;51.380;0.098;2023-05-07T08:24:09;12.38;;;7.47;;
63259;SDS011;49390;51.380;0.098;2023-05-07T08:26:37;18.00;;;7.15;;
63259;SDS011;49390;51.380;0.098;2023-05-07T08:29:07;12.48;;;7.60;;
63259;SDS011;49390;51.380;0.098;2023-05-07T08:31:36;14.23;;;7.13;;
63259;SDS011;49390;51.380;0.098;2023-05-07T08:34:05;15.35;;;8.02;;
63259;SDS011;49390;51.380;0.098;2023-05-07T08:36:39;15.00;;;7.80;;
63259;SDS011;49390;51.380;0.098;2023-05-07T08:41:38;13.52;;;7.28;;
63259;SDS011;49390;51.380;0.098;2023-05-07T08:44:07;14.32;;;7.80;;
63259;SDS011;49390;51.380;0.098;2023-05-07T08:46:41;10.82;;;6.32;;
63259;SDS011;49390;51.380;0.098;2023-05-07T08:49:11;12.80;;;6.38;;
63259;SDS011;49390;51.380;0.098;2023-05-07T08:53:58;11.57;;;6.07;;
63259;SDS011;49390;51.380;0.098;2023-05-07T08:56:32;12.10;;;5.90;;
63259;SDS011;49390;51.380;0.098;2023-05-07T08:59:01;11.15;;;5.88;;
63259;SDS011;49390;51.380;0.098;2023-05-07T09:01:30;8.15;;;4.82;;
63259;SDS011;49390;51.380;0.098;2023-05-07T09:03:58;8.32;;;4.70;;
63259;SDS011;49390;51.380;0.098;2023-05-07T09:06:28;8.75;;;4.88;;
63259;SDS011;49390;51.380;0.098;2023-05-07T09:08:56;9.23;;;4.90;;
63259;SDS011;49390;51.380;0.098;2023-05-07T09:11:29;8.00;;;4.60;;
63259;SDS011;49390;51.380;0.098;2023-05-07T09:14:00;7.93;;;4.60;;
63259;SDS011;49390;51.380;0.098;2023-05-07T09:16:37;6.68;;;4.35;;
63259;SDS011;49390;51.380;0.098;2023-05-07T09:19:06;6.72;;;4.32;;
63259;SDS011;49390;51.380;0.098;2023-05-07T09:21:34;6.85;;;4.30;;
63259;SDS011;49390;51.380;0.098;2023-05-07T09:24:06;7.03;;;3.47;;
63259;SDS011;49390;51.380;0.098;2023-05-07T09:26:39;6.72;;;4.10;;
63259;SDS011;49390;51.380;0.098;2023-05-07T09:29:09;6.05;;;4.03;;
63259;SDS011;49390;51.380;0.098;2023-05-07T09:31:39;6.97;;;4.17;;
63259;SDS011;49390;51.380;0.098;2023-05-07T09:34:10;7.38;;;3.60;;
63259;SDS011;49390;51.380;0.098;2023-05-07T09:36:41;7.93;;;4.45;;
63259;SDS011;49390;51.380;0.098;2023-05-07T09:39:09;8.85;;;4.78;;
63259;SDS011;49390;51.380;0.098;2023-05-07T09:41:44;7.07;;;4.38;;
63259;SDS011;49390;51.380;0.098;2023-05-07T09:44:31;8.18;;;4.63;;
63259;SDS011;49390;51.380;0.098;2023-05-07T09:47:00;7.28;;;4.32;;
63259;SDS011;49390;51.380;0.098;2023-05-07T09:49:37;7.13;;;4.35;;
63259;SDS011;49390;51.380;0.098;2023-05-07T09:52:09;8.75;;;4.57;;
63259;SDS011;49390;51.380;0.098;2023-05-07T09:54:43;8.70;;;4.47;;
63259;SDS011;49390;51.380;0.098;2023-05-07T09:57:16;6.57;;;4.57;;
63259;SDS011;49390;51.380;0.098;2023-05-07T09:59:51;7.50;;;4.55;;
63259;SDS011;49390;51.380;0.098;2023-05-07T10:02:21;9.52;;;5.13;;
63259;SDS011;49390;51.380;0.098;2023-05-07T10:04:53;8.35;;;4.47;;
63259;SDS011;49390;51.380;0.098;2023-05-07T10:07:27;7.07;;;4.20;;
63259;SDS011;49390;51.380;0.098;2023-05-07T10:10:00;7.50;;;4.32;;
63259;SDS011;49390;51.380;0.098;2023-05-07T10:12:35;8.18;;;4.88;;
63259;SDS011;49390;51.380;0.098;2023-05-07T10:15:12;7.53;;;4.53;;
63259;SDS011;49390;51.380;0.098;2023-05-07T10:17:45;7.22;;;4.40;;
63259;SDS011;49390;51.380;0.098;2023-05-07T10:20:18;7.25;;;4.40;;
63259;SDS011;49390;51.380;0.098;2023-05-07T10:22:48;8.30;;;4.50;;
63259;SDS011;49390;51.380;0.098;2023-05-07T10:25:28;7.72;;;4.65;;
63259;SDS011;49390;51.380;0.098;2023-05-07T10:28:05;7.72;;;4.80;;
63259;SDS011;49390;51.380;0.098;2023-05-07T10:33:37;7.72;;;4.55;;
63259;SDS011;49390;51.380;0.098;2023-05-07T10:36:07;7.93;;;4.57;;
63259;SDS011;49390;51.380;0.098;2023-05-07T10:38:36;7.88;;;4.95;;
63259;SDS011;49390;51.380;0.098;2023-05-07T10:41:05;7.95;;;5.00;;
63259;SDS011;49390;51.380;0.098;2023-05-07T10:43:41;7.82;;;4.68;;
63259;SDS011;49390;51.380;0.098;2023-05-07T10:46:18;11.10;;;5.57;;
63259;SDS011;49390;51.380;0.098;2023-05-07T10:49:13;7.82;;;4.55;;
63259;SDS011;49390;51.380;0.098;2023-05-07T10:52:10;7.45;;;5.00;;
63259;SDS011;49390;51.380;0.098;2023-05-07T10:57:53;7.25;;;4.40;;
63259;SDS011;49390;51.380;0.098;2023-05-07T11:05:37;6.38;;;4.43;;
63259;SDS011;49390;51.380;0.098;2023-05-07T11:08:17;6.83;;;4.77;;
63259;SDS011;49390;51.380;0.098;2023-05-07T11:11:03;7.38;;;4.70;;
63259;SDS011;49390;51.380;0.098;2023-05-07T11:13:47;6.80;;;4.82;;
63259;SDS011;49390;51.380;0.098;2023-05-07T11:16:33;9.07;;;5.40;;
63259;SDS011;49390;51.380;0.098;2023-05-07T11:19:16;8.75;;;5.10;;
63259;SDS011;49390;51.380;0.098;2023-05-07T11:21:48;8.15;;;5.10;;
63259;SDS011;49390;51.380;0.098;2023-05-07T11:24:40;7.95;;;5.68;;
63259;SDS011;49390;51.380;0.098;2023-05-07T11:27:12;7.68;;;5.78;;
63259;SDS011;49390;51.380;0.098;2023-05-07T11:29:41;7.55;;;5.03;;
63259;SDS011;49390;51.380;0.098;2023-05-07T11:34:54;7.55;;;4.57;;
63259;SDS011;49390;51.380;0.098;2023-05-07T11:37:23;6.68;;;4.40;;
63259;SDS011;49390;51.380;0.098;2023-05-07T11:40:03;6.35;;;4.13;;
63259;SDS011;49390;51.380;0.098;2023-05-07T11:42:35;7.72;;;5.05;;
63259;SDS011;49390;51.380;0.098;2023-05-07T11:45:07;6.70;;;4.63;;
63259;SDS011;49390;51.380;0.098;2023-05-07T11:47:36;7.40;;;4.75;;
63259;SDS011;49390;51.380;0.098;2023-05-07T11:50:06;9.27;;;5.35;;
63259;SDS011;49390;51.380;0.098;2023-05-07T11:52:35;8.65;;;5.88;;
63259;SDS011;49390;51.380;0.098;2023-05-07T11:55:03;8.50;;;5.72;;
63259;SDS011;49390;51.380;0.098;2023-05-07T11:57:32;8.57;;;5.85;;
63259;SDS011;49390;51.380;0.098;2023-05-07T12:00:02;9.55;;;6.32;;
63259;SDS011;49390;51.380;0.098;2023-05-07T12:02:45;9.73;;;6.53;;
63259;SDS011;49390;51.380;0.098;2023-05-07T12:05:12;8.52;;;6.55;;
63259;SDS011;49390;51.380;0.098;2023-05-07T12:07:41;6.93;;;5.90;;
63259;SDS011;49390;51.380;0.098;2023-05-07T12:10:09;7.82;;;5.60;;
63259;SDS011;49390;51.380;0.098;2023-05-07T12:12:39;8.90;;;5.70;;
63259;SDS011;49390;51.380;0.098;2023-05-07T12:15:09;9.55;;;5.85;;
63259;SDS011;49390;51.380;0.098;2023-05-07T12:17:38;7.40;;;5.00;;
63259;SDS011;49390;51.380;0.098;2023-05-07T12:20:07;7.93;;;5.45;;
63259;SDS011;49390;51.380;0.098;2023-05-07T12:22:39;7.47;;;5.88;;
63259;SDS011;49390;51.380;0.098;2023-05-07T12:25:08;8.00;;;5.82;;
63259;SDS011;49390;51.380;0.098;2023-05-07T12:27:37;8.32;;;6.22;;
63259;SDS011;49390;51.380;0.098;2023-05-07T12:30:06;8.98;;;6.00;;
63259;SDS011;49390;51.380;0.098;2023-05-07T12:32:36;8.23;;;5.97;;
63259;SDS011;49390;51.380;0.098;2023-05-07T12:35:05;7.75;;;5.28;;
63259;SDS011;49390;51.380;0.098;2023-05-07T12:37:34;7.13;;;5.15;;
63259;SDS011;49390;51.380;0.098;2023-05-07T12:40:06;7.82;;;5.55;;
63259;SDS011;49390;51.380;0.098;2023-05-07T12:42:37;9.00;;;6.13;;
63259;SDS011;49390;51.380;0.098;2023-05-07T12:45:09;8.80;;;6.25;;
63259;SDS011;49390;51.380;0.098;2023-05-07T12:47:38;8.95;;;5.93;;
63259;SDS011;49390;51.380;0.098;2023-05-07T12:50:06;8.65;;;5.70;;
63259;SDS011;49390;51.380;0.098;2023-05-07T12:52:35;8.20;;;5.70;;
63259;SDS011;49390;51.380;0.098;2023-05-07T12:55:07;8.20;;;5.97;;
63259;SDS011;49390;51.380;0.098;2023-05-07T12:57:40;6.85;;;5.07;;
63259;SDS011;49390;51.380;0.098;2023-05-07T13:00:09;7.88;;;5.60;;
63259;SDS011;49390;51.380;0.098;2023-05-07T13:02:41;7.07;;;5.38;;
63259;SDS011;49390;51.380;0.098;2023-05-07T13:05:13;8.90;;;5.20;;
63259;SDS011;49390;51.380;0.098;2023-05-07T13:07:51;7.80;;;4.90;;
63259;SDS011;49390;51.380;0.098;2023-05-07T13:10:21;6.30;;;4.75;;
63259;SDS011;49390;51.380;0.098;2023-05-07T13:12:52;8.63;;;5.45;;
63259;SDS011;49390;51.380;0.098;2023-05-07T13:15:22;7.30;;;4.82;;
63259;SDS011;49390;51.380;0.098;2023-05-07T13:17:50;7.03;;;5.32;;
63259;SDS011;49390;51.380;0.098;2023-05-07T13:20:18;8.70;;;5.30;;
63259;SDS011;49390;51.380;0.098;2023-05-07T13:22:49;7.00;;;5.22;;
63259;SDS011;49390;51.380;0.098;2023-05-07T13:25:16;8.52;;;5.97;;
63259;SDS011;49390;51.380;0.098;2023-05-07T13:27:45;8.27;;;5.05;;
63259;SDS011;49390;51.380;0.098;2023-05-07T13:30:20;7.90;;;5.00;;
63259;SDS011;49390;51.380;0.098;2023-05-07T13:32:48;7.13;;;4.90;;
63259;SDS011;49390;51.380;0.098;2023-05-07T13:35:17;6.10;;;4.47;;
63259;SDS011;49390;51.380;0.098;2023-05-07T13:37:45;6.93;;;4.90;;
63259;SDS011;49390;51.380;0.098;2023-05-07T13:40:12;6.50;;;4.80;;
63259;SDS011;49390;51.380;0.098;2023-05-07T13:42:40;7.10;;;5.30;;
63259;SDS011;49390;51.380;0.098;2023-05-07T13:45:08;6.65;;;5.00;;
63259;SDS011;49390;51.380;0.098;2023-05-07T13:47:41;7.30;;;5.55;;
63259;SDS011;49390;51.380;0.098;2023-05-07T13:50:09;6.93;;;4.82;;
63259;SDS011;49390;51.380;0.098;2023-05-07T13:52:44;6.43;;;5.20;;
63259;SDS011;49390;51.380;0.098;2023-05-07T13:55:18;7.25;;;4.65;;
63259;SDS011;49390;51.380;0.098;2023-05-07T13:57:47;7.60;;;4.70;;
63259;SDS011;49390;51.380;0.098;2023-05-07T14:00:14;6.35;;;4.65;;
63259;SDS011;49390;51.380;0.098;2023-05-07T14:02:43;6.72;;;4.60;;
63259;SDS011;49390;51.380;0.098;2023-05-07T14:05:11;6.60;;;4.28;;
63259;SDS011;49390;51.380;0.098;2023-05-07T14:07:41;6.72;;;4.93;;
63259;SDS011;49390;51.380;0.098;2023-05-07T14:10:08;5.57;;;4.40;;
63259;SDS011;49390;51.380;0.098;2023-05-07T14:12:41;6.80;;;4.50;;
63259;SDS011;49390;51.380;0.098;2023-05-07T14:15:12;6.95;;;4.80;;
63259;SDS011;49390;51.380;0.098;2023-05-07T14:17:41;6.90;;;4.65;;
63259;SDS011;49390;51.380;0.098;2023-05-07T14:20:10;6.38;;;4.28;;
63259;SDS011;49390;51.380;0.098;2023-05-07T14:22:39;6.03;;;3.78;;
63259;SDS011;49390;51.380;0.098;2023-05-07T14:25:07;6.85;;;4.05;;
63259;SDS011;49390;51.380;0.098;2023-05-07T14:27:37;5.72;;;3.47;;
63259;SDS011;49390;51.380;0.098;2023-05-07T14:30:05;5.60;;;3.67;;
63259;SDS011;49390;51.380;0.098;2023-05-07T14:32:34;5.28;;;3.20;;
63259;SDS011;49390;51.380;0.098;2023-05-07T14:35:02;6.10;;;3.50;;
63259;SDS011;49390;51.380;0.098;2023-05-07T14:37:31;6.05;;;3.85;;
63259;SDS011;49390;51.380;0.098;2023-05-07T14:39:58;7.03;;;3.80;;
63259;SDS011;49390;51.380;0.098;2023-05-07T14:42:27;6.10;;;3.60;;
63259;SDS011;49390;51.380;0.098;2023-05-07T14:44:54;6.00;;;3.47;;
63259;SDS011;49390;51.380;0.098;2023-05-07T14:47:23;5.50;;;3.58;;
63259;SDS011;49390;51.380;0.098;2023-05-07T14:49:50;5.65;;;3.78;;
63259;SDS011;49390;51.380;0.098;2023-05-07T14:52:19;5.65;;;3.78;;
63259;SDS011;49390;51.380;0.098;2023-05-07T14:54:47;5.60;;;3.58;;
63259;SDS011;49390;51.380;0.098;2023-05-07T14:57:15;6.28;;;3.40;;
63259;SDS011;49390;51.380;0.098;2023-05-07T14:59:43;6.47;;;3.50;;
63259;SDS011;49390;51.380;0.098;2023-05-07T15:02:11;5.70;;;3.20;;
63259;SDS011;49390;51.380;0.098;2023-05-07T15:04:40;6.15;;;3.60;;
63259;SDS011;49390;51.380;0.098;2023-05-07T15:07:13;5.28;;;3.30;;
63259;SDS011;49390;51.380;0.098;2023-05-07T15:09:42;5.03;;;3.20;;
63259;SDS011;49390;51.380;0.098;2023-05-07T15:12:11;5.35;;;3.42;;
63259;SDS011;49390;51.380;0.098;2023-05-07T15:14:40;5.28;;;3.40;;
63259;SDS011;49390;51.380;0.098;2023-05-07T15:17:12;5.60;;;3.58;;
63259;SDS011;49390;51.380;0.098;2023-05-07T15:19:42;5.50;;;3.80;;
63259;SDS011;49390;51.380;0.098;2023-05-07T15:22:10;4.75;;;3.30;;
63259;SDS011;49390;51.380;0.098;2023-05-07T15:24:37;6.07;;;3.70;;
63259;SDS011;49390;51.380;0.098;2023-05-07T15:27:08;5.35;;;3.65;;
63259;SDS011;49390;51.380;0.098;2023-05-07T15:29:36;5.85;;;3.63;;
63259;SDS011;49390;51.380;0.098;2023-05-07T15:32:04;7.13;;;3.50;;
63259;SDS011;49390;51.380;0.098;2023-05-07T15:34:33;6.00;;;3.65;;